sensor_id;sensor_type;location;lat;lon;timestamp;P1;durP1;ratioP1;P2;durP2;ratioP2
1128;SDS011;553;51.038;7.216;2022-08-03T00:00:25;7.03;;;3.00;;
1128;SDS011;553;51.038;7.216;2022-08-03T00:02:52;5.07;;;3.50;;
1128;SDS011;553;51.038;7.216;2022-08-03T00:05:19;3.70;;;3.30;;
1128;SDS011;553;51.038;7.216;2022-08-03T00:07:46;4.07;;;3.00;;
1128;SDS011;553;51.038;7.216;2022-08-03T00:10:14;3.93;;;3.20;;
1128;SDS011;553;51.038;7.216;2022-08-03T00:12:42;4.07;;;3.40;;
1128;SDS011;553;51.038;7.216;2022-08-03T00:15:09;5.93;;;3.50;;
1128;SDS011;553;51.038;7.216;2022-08-03T00:17:42;4.57;;;3.20;;
1128;SDS011;553;51.038;7.216;2022-08-03T00:20:19;4.10;;;3.70;;
1128;SDS011;553;51.038;7.216;2022-08-03T00:22:47;3.90;;;3.37;;
1128;SDS011;553;51.038;7.216;2022-08-03T00:25:14;3.37;;;3.07;;
1128;SDS011;553;51.038;7.216;2022-08-03T00:27:41;3.50;;;3.17;;
1128;SDS011;553;51.038;7.216;2022-08-03T00:30:07;3.33;;;3.00;;
1128;SDS011;553;51.038;7.216;2022-08-03T00:32:34;6.80;;;3.50;;
1128;SDS011;553;51.038;7.216;2022-08-03T00:35:04;3.53;;;3.23;;
1128;SDS011;553;51.038;7.216;2022-08-03T00:37:37;3.73;;;3.20;;
1128;SDS011;553;51.038;7.216;2022-08-03T00:40:08;4.40;;;3.10;;
1128;SDS011;553;51.038;7.216;2022-08-03T00:42:46;5.33;;;3.93;;
1128;SDS011;553;51.038;7.216;2022-08-03T00:45:13;4.77;;;3.53;;
1128;SDS011;553;51.038;7.216;2022-08-03T00:47:40;5.50;;;3.37;;
1128;SDS011;553;51.038;7.216;2022-08-03T00:50:07;4.60;;;3.53;;
1128;SDS011;553;51.038;7.216;2022-08-03T00:52:34;5.10;;;3.20;;
1128;SDS011;553;51.038;7.216;2022-08-03T00:55:02;4.47;;;3.50;;
1128;SDS011;553;51.038;7.216;2022-08-03T00:57:29;5.83;;;3.60;;
1128;SDS011;553;51.038;7.216;2022-08-03T00:59:57;4.00;;;3.20;;
1128;SDS011;553;51.038;7.216;2022-08-03T01:02:26;4.00;;;3.20;;
1128;SDS011;553;51.038;7.216;2022-08-03T01:04:54;4.83;;;3.40;;
1128;SDS011;553;51.038;7.216;2022-08-03T01:13:16;5.13;;;3.30;;
1128;SDS011;553;51.038;7.216;2022-08-03T01:16:37;5.70;;;3.50;;
1128;SDS011;553;51.038;7.216;2022-08-03T01:30:23;8.20;;;4.00;;
1128;SDS011;553;51.038;7.216;2022-08-03T01:38:23;5.90;;;3.60;;
1128;SDS011;553;51.038;7.216;2022-08-03T01:40:57;4.07;;;3.70;;
1128;SDS011;553;51.038;7.216;2022-08-03T01:43:33;3.80;;;3.40;;
1128;SDS011;553;51.038;7.216;2022-08-03T01:46:21;4.53;;;3.90;;
1128;SDS011;553;51.038;7.216;2022-08-03T01:48:50;5.23;;;3.60;;
1128;SDS011;553;51.038;7.216;2022-08-03T01:51:20;3.67;;;3.10;;
1128;SDS011;553;51.038;7.216;2022-08-03T01:53:48;4.30;;;3.90;;
1128;SDS011;553;51.038;7.216;2022-08-03T01:56:16;4.87;;;3.60;;
1128;SDS011;553;51.038;7.216;2022-08-03T01:58:45;3.77;;;3.40;;
1128;SDS011;553;51.038;7.216;2022-08-03T02:01:14;5.83;;;3.63;;
1128;SDS011;553;51.038;7.216;2022-08-03T02:03:42;6.03;;;3.93;;
1128;SDS011;553;51.038;7.216;2022-08-03T02:06:26;6.23;;;3.50;;
1128;SDS011;553;51.038;7.216;2022-08-03T02:09:17;8.03;;;3.90;;
1128;SDS011;553;51.038;7.216;2022-08-03T02:11:46;6.03;;;3.63;;
1128;SDS011;553;51.038;7.216;2022-08-03T02:14:16;4.57;;;3.13;;
1128;SDS011;553;51.038;7.216;2022-08-03T02:16:44;5.90;;;3.93;;
1128;SDS011;553;51.038;7.216;2022-08-03T02:19:11;6.70;;;3.87;;
1128;SDS011;553;51.038;7.216;2022-08-03T02:21:39;4.80;;;4.30;;
1128;SDS011;553;51.038;7.216;2022-08-03T02:24:26;4.00;;;3.50;;
1128;SDS011;553;51.038;7.216;2022-08-03T02:26:54;4.40;;;3.83;;
1128;SDS011;553;51.038;7.216;2022-08-03T02:29:23;3.57;;;3.27;;
1128;SDS011;553;51.038;7.216;2022-08-03T02:32:05;8.20;;;3.53;;
1128;SDS011;553;51.038;7.216;2022-08-03T02:34:39;4.67;;;3.90;;
1128;SDS011;553;51.038;7.216;2022-08-03T02:37:09;4.20;;;3.80;;
1128;SDS011;553;51.038;7.216;2022-08-03T02:39:38;4.27;;;3.43;;
1128;SDS011;553;51.038;7.216;2022-08-03T02:42:07;6.00;;;4.20;;
1128;SDS011;553;51.038;7.216;2022-08-03T02:44:37;5.10;;;3.83;;
1128;SDS011;553;51.038;7.216;2022-08-03T02:47:07;4.10;;;3.40;;
1128;SDS011;553;51.038;7.216;2022-08-03T02:49:36;4.97;;;4.00;;
1128;SDS011;553;51.038;7.216;2022-08-03T02:52:18;4.60;;;3.87;;
1128;SDS011;553;51.038;7.216;2022-08-03T02:54:47;5.43;;;4.80;;
1128;SDS011;553;51.038;7.216;2022-08-03T02:57:16;5.10;;;3.90;;
1128;SDS011;553;51.038;7.216;2022-08-03T02:59:45;4.93;;;3.70;;
1128;SDS011;553;51.038;7.216;2022-08-03T03:02:13;4.27;;;3.60;;
1128;SDS011;553;51.038;7.216;2022-08-03T03:04:42;6.23;;;3.87;;
1128;SDS011;553;51.038;7.216;2022-08-03T03:07:30;4.23;;;3.83;;
1128;SDS011;553;51.038;7.216;2022-08-03T03:10:18;5.20;;;3.80;;
1128;SDS011;553;51.038;7.216;2022-08-03T03:12:49;5.00;;;4.10;;
1128;SDS011;553;51.038;7.216;2022-08-03T03:15:17;5.30;;;4.33;;
1128;SDS011;553;51.038;7.216;2022-08-03T03:17:44;4.23;;;3.83;;
1128;SDS011;553;51.038;7.216;2022-08-03T03:20:12;6.97;;;3.90;;
1128;SDS011;553;51.038;7.216;2022-08-03T03:22:55;8.13;;;5.20;;
1128;SDS011;553;51.038;7.216;2022-08-03T03:25:24;5.63;;;4.13;;
1128;SDS011;553;51.038;7.216;2022-08-03T03:27:52;4.13;;;3.73;;
1128;SDS011;553;51.038;7.216;2022-08-03T03:30:19;5.27;;;4.13;;
1128;SDS011;553;51.038;7.216;2022-08-03T03:32:46;6.37;;;4.07;;
1128;SDS011;553;51.038;7.216;2022-08-03T03:35:14;5.37;;;4.50;;
1128;SDS011;553;51.038;7.216;2022-08-03T03:37:41;4.40;;;3.90;;
1128;SDS011;553;51.038;7.216;2022-08-03T03:40:08;4.23;;;3.83;;
1128;SDS011;553;51.038;7.216;2022-08-03T03:42:36;4.80;;;4.40;;
1128;SDS011;553;51.038;7.216;2022-08-03T03:45:06;5.30;;;4.47;;
1128;SDS011;553;51.038;7.216;2022-08-03T03:47:34;5.67;;;5.17;;
1128;SDS011;553;51.038;7.216;2022-08-03T03:50:04;5.50;;;4.07;;
1128;SDS011;553;51.038;7.216;2022-08-03T03:52:32;5.90;;;4.17;;
1128;SDS011;553;51.038;7.216;2022-08-03T03:54:59;4.43;;;4.03;;
1128;SDS011;553;51.038;7.216;2022-08-03T03:57:27;4.33;;;3.83;;
1128;SDS011;553;51.038;7.216;2022-08-03T03:59:54;5.60;;;4.10;;
1128;SDS011;553;51.038;7.216;2022-08-03T04:02:21;4.80;;;3.90;;
1128;SDS011;553;51.038;7.216;2022-08-03T04:04:48;6.50;;;4.30;;
1128;SDS011;553;51.038;7.216;2022-08-03T04:07:37;5.43;;;3.97;;
1128;SDS011;553;51.038;7.216;2022-08-03T04:10:38;4.80;;;4.30;;
1128;SDS011;553;51.038;7.216;2022-08-03T04:16:14;4.80;;;4.30;;
1128;SDS011;553;51.038;7.216;2022-08-03T04:18:43;6.93;;;4.70;;
1128;SDS011;553;51.038;7.216;2022-08-03T04:21:16;4.37;;;3.97;;
1128;SDS011;553;51.038;7.216;2022-08-03T04:23:47;5.10;;;4.10;;
1128;SDS011;553;51.038;7.216;2022-08-03T04:26:20;5.33;;;4.10;;
1128;SDS011;553;51.038;7.216;2022-08-03T04:28:49;4.33;;;3.93;;
1128;SDS011;553;51.038;7.216;2022-08-03T04:31:20;7.60;;;4.00;;
1128;SDS011;553;51.038;7.216;2022-08-03T04:33:49;5.27;;;4.33;;
1128;SDS011;553;51.038;7.216;2022-08-03T04:36:19;5.60;;;4.50;;
1128;SDS011;553;51.038;7.216;2022-08-03T04:41:29;5.60;;;4.33;;
1128;SDS011;553;51.038;7.216;2022-08-03T04:43:57;5.60;;;4.63;;
1128;SDS011;553;51.038;7.216;2022-08-03T04:46:27;6.50;;;3.83;;
1128;SDS011;553;51.038;7.216;2022-08-03T04:48:59;5.00;;;4.40;;
1128;SDS011;553;51.038;7.216;2022-08-03T04:51:27;5.60;;;4.70;;
1128;SDS011;553;51.038;7.216;2022-08-03T04:53:55;4.50;;;4.10;;
1128;SDS011;553;51.038;7.216;2022-08-03T04:56:21;5.30;;;4.80;;
1128;SDS011;553;51.038;7.216;2022-08-03T04:58:48;8.13;;;4.40;;
1128;SDS011;553;51.038;7.216;2022-08-03T05:01:15;7.97;;;4.20;;
1128;SDS011;553;51.038;7.216;2022-08-03T05:03:42;5.13;;;4.20;;
1128;SDS011;553;51.038;7.216;2022-08-03T05:06:09;5.60;;;5.10;;
1128;SDS011;553;51.038;7.216;2022-08-03T05:08:37;6.83;;;5.47;;
1128;SDS011;553;51.038;7.216;2022-08-03T05:11:13;7.07;;;6.37;;
1128;SDS011;553;51.038;7.216;2022-08-03T05:13:40;5.90;;;5.30;;
1128;SDS011;553;51.038;7.216;2022-08-03T05:16:07;8.30;;;5.43;;
1128;SDS011;553;51.038;7.216;2022-08-03T05:18:34;6.27;;;5.20;;
1128;SDS011;553;51.038;7.216;2022-08-03T05:21:01;6.20;;;4.43;;
1128;SDS011;553;51.038;7.216;2022-08-03T05:23:28;4.70;;;4.27;;
1128;SDS011;553;51.038;7.216;2022-08-03T05:25:54;5.20;;;4.70;;
1128;SDS011;553;51.038;7.216;2022-08-03T05:28:21;5.40;;;4.40;;
1128;SDS011;553;51.038;7.216;2022-08-03T05:30:48;9.67;;;5.10;;
1128;SDS011;553;51.038;7.216;2022-08-03T05:33:15;8.23;;;4.50;;
1128;SDS011;553;51.038;7.216;2022-08-03T05:35:42;7.90;;;5.17;;
1128;SDS011;553;51.038;7.216;2022-08-03T05:38:28;5.90;;;4.90;;
1128;SDS011;553;51.038;7.216;2022-08-03T05:41:00;6.67;;;4.63;;
1128;SDS011;553;51.038;7.216;2022-08-03T05:43:48;4.70;;;4.30;;
1128;SDS011;553;51.038;7.216;2022-08-03T05:46:15;4.27;;;3.87;;
1128;SDS011;553;51.038;7.216;2022-08-03T05:48:42;7.20;;;4.00;;
1128;SDS011;553;51.038;7.216;2022-08-03T05:51:09;7.83;;;4.87;;
1128;SDS011;553;51.038;7.216;2022-08-03T05:53:39;5.03;;;4.53;;
1128;SDS011;553;51.038;7.216;2022-08-03T05:56:06;6.73;;;4.60;;
1128;SDS011;553;51.038;7.216;2022-08-03T05:58:41;5.33;;;4.00;;
1128;SDS011;553;51.038;7.216;2022-08-03T06:01:11;4.97;;;4.47;;
1128;SDS011;553;51.038;7.216;2022-08-03T06:03:38;5.43;;;4.33;;
1128;SDS011;553;51.038;7.216;2022-08-03T06:06:05;5.30;;;4.03;;
1128;SDS011;553;51.038;7.216;2022-08-03T06:08:32;6.77;;;3.53;;
1128;SDS011;553;51.038;7.216;2022-08-03T06:10:59;6.97;;;4.13;;
1128;SDS011;553;51.038;7.216;2022-08-03T06:13:26;3.47;;;3.17;;
1128;SDS011;553;51.038;7.216;2022-08-03T06:15:53;4.23;;;2.87;;
1128;SDS011;553;51.038;7.216;2022-08-03T06:18:19;3.50;;;3.10;;
1128;SDS011;553;51.038;7.216;2022-08-03T06:20:46;3.40;;;3.10;;
1128;SDS011;553;51.038;7.216;2022-08-03T06:23:14;3.73;;;2.80;;
1128;SDS011;553;51.038;7.216;2022-08-03T06:25:44;3.63;;;2.90;;
1128;SDS011;553;51.038;7.216;2022-08-03T06:28:11;3.33;;;2.73;;
1128;SDS011;553;51.038;7.216;2022-08-03T06:30:59;3.10;;;2.83;;
1128;SDS011;553;51.038;7.216;2022-08-03T06:33:27;4.90;;;2.60;;
1128;SDS011;553;51.038;7.216;2022-08-03T06:36:14;3.43;;;3.13;;
1128;SDS011;553;51.038;7.216;2022-08-03T06:38:41;3.80;;;2.63;;
1128;SDS011;553;51.038;7.216;2022-08-03T06:41:07;5.67;;;2.70;;
1128;SDS011;553;51.038;7.216;2022-08-03T06:43:34;4.10;;;2.43;;
1128;SDS011;553;51.038;7.216;2022-08-03T06:46:03;3.10;;;2.83;;
1128;SDS011;553;51.038;7.216;2022-08-03T06:48:31;2.87;;;2.50;;
1128;SDS011;553;51.038;7.216;2022-08-03T06:50:57;3.03;;;2.80;;
1128;SDS011;553;51.038;7.216;2022-08-03T06:53:24;4.47;;;2.90;;
1128;SDS011;553;51.038;7.216;2022-08-03T06:55:51;4.10;;;2.80;;
1128;SDS011;553;51.038;7.216;2022-08-03T06:58:20;6.13;;;3.03;;
1128;SDS011;553;51.038;7.216;2022-08-03T07:00:47;4.47;;;2.50;;
1128;SDS011;553;51.038;7.216;2022-08-03T07:03:15;4.80;;;2.70;;
1128;SDS011;553;51.038;7.216;2022-08-03T07:05:42;3.03;;;2.73;;
1128;SDS011;553;51.038;7.216;2022-08-03T07:08:12;7.50;;;3.10;;
1128;SDS011;553;51.038;7.216;2022-08-03T07:10:39;3.70;;;2.93;;
1128;SDS011;553;51.038;7.216;2022-08-03T07:13:06;4.20;;;2.37;;
1128;SDS011;553;51.038;7.216;2022-08-03T07:15:33;6.30;;;3.20;;
1128;SDS011;553;51.038;7.216;2022-08-03T07:18:20;3.40;;;3.10;;
1128;SDS011;553;51.038;7.216;2022-08-03T07:20:55;4.07;;;3.17;;
1128;SDS011;553;51.038;7.216;2022-08-03T07:23:23;4.70;;;3.10;;
1128;SDS011;553;51.038;7.216;2022-08-03T07:25:51;3.80;;;3.20;;
1128;SDS011;553;51.038;7.216;2022-08-03T07:28:18;2.73;;;2.50;;
1128;SDS011;553;51.038;7.216;2022-08-03T07:30:45;3.70;;;3.30;;
1128;SDS011;553;51.038;7.216;2022-08-03T07:33:13;4.30;;;2.53;;
1128;SDS011;553;51.038;7.216;2022-08-03T07:35:40;4.00;;;3.10;;
1128;SDS011;553;51.038;7.216;2022-08-03T07:38:07;3.93;;;3.13;;
1128;SDS011;553;51.038;7.216;2022-08-03T07:40:34;4.47;;;2.87;;
1128;SDS011;553;51.038;7.216;2022-08-03T07:43:01;3.80;;;3.50;;
1128;SDS011;553;51.038;7.216;2022-08-03T07:45:29;5.13;;;2.70;;
1128;SDS011;553;51.038;7.216;2022-08-03T07:47:56;5.73;;;2.90;;
1128;SDS011;553;51.038;7.216;2022-08-03T07:50:23;3.17;;;2.87;;
1128;SDS011;553;51.038;7.216;2022-08-03T07:52:51;5.10;;;3.23;;
1128;SDS011;553;51.038;7.216;2022-08-03T07:55:22;3.67;;;3.03;;
1128;SDS011;553;51.038;7.216;2022-08-03T08:00:29;3.30;;;2.43;;
1128;SDS011;553;51.038;7.216;2022-08-03T08:02:56;3.57;;;2.43;;
1128;SDS011;553;51.038;7.216;2022-08-03T08:05:23;7.33;;;3.03;;
1128;SDS011;553;51.038;7.216;2022-08-03T08:07:50;3.10;;;2.50;;
1128;SDS011;553;51.038;7.216;2022-08-03T08:10:17;3.70;;;2.77;;
1128;SDS011;553;51.038;7.216;2022-08-03T08:12:44;7.67;;;2.67;;
1128;SDS011;553;51.038;7.216;2022-08-03T08:15:11;4.37;;;3.07;;
1128;SDS011;553;51.038;7.216;2022-08-03T08:17:41;3.47;;;2.77;;
1128;SDS011;553;51.038;7.216;2022-08-03T08:20:20;3.00;;;2.67;;
1128;SDS011;553;51.038;7.216;2022-08-03T08:22:56;5.30;;;3.10;;
1128;SDS011;553;51.038;7.216;2022-08-03T08:25:29;3.40;;;3.03;;
1128;SDS011;553;51.038;7.216;2022-08-03T08:27:57;3.80;;;2.90;;
1128;SDS011;553;51.038;7.216;2022-08-03T08:30:47;3.10;;;2.80;;
1128;SDS011;553;51.038;7.216;2022-08-03T08:33:14;3.77;;;2.87;;
1128;SDS011;553;51.038;7.216;2022-08-03T08:35:49;4.63;;;3.00;;
1128;SDS011;553;51.038;7.216;2022-08-03T08:38:17;3.10;;;2.53;;
1128;SDS011;553;51.038;7.216;2022-08-03T08:40:44;2.60;;;2.40;;
1128;SDS011;553;51.038;7.216;2022-08-03T08:43:11;3.03;;;2.80;;
1128;SDS011;553;51.038;7.216;2022-08-03T08:45:37;3.83;;;2.70;;
1128;SDS011;553;51.038;7.216;2022-08-03T08:48:06;4.03;;;2.60;;
1128;SDS011;553;51.038;7.216;2022-08-03T08:50:36;2.97;;;2.67;;
1128;SDS011;553;51.038;7.216;2022-08-03T08:53:04;3.20;;;2.90;;
1128;SDS011;553;51.038;7.216;2022-08-03T08:55:45;2.70;;;2.50;;
1128;SDS011;553;51.038;7.216;2022-08-03T08:58:25;5.07;;;3.50;;
1128;SDS011;553;51.038;7.216;2022-08-03T09:00:55;5.30;;;3.20;;
1128;SDS011;553;51.038;7.216;2022-08-03T09:03:22;3.73;;;2.90;;
1128;SDS011;553;51.038;7.216;2022-08-03T09:05:55;3.03;;;2.73;;
1128;SDS011;553;51.038;7.216;2022-08-03T09:08:27;2.50;;;2.30;;
1128;SDS011;553;51.038;7.216;2022-08-03T09:10:55;2.63;;;2.43;;
1128;SDS011;553;51.038;7.216;2022-08-03T09:13:22;3.50;;;1.93;;
1128;SDS011;553;51.038;7.216;2022-08-03T09:16:02;2.33;;;2.13;;
1128;SDS011;553;51.038;7.216;2022-08-03T09:18:40;2.67;;;2.20;;
1128;SDS011;553;51.038;7.216;2022-08-03T09:21:12;3.37;;;2.27;;
1128;SDS011;553;51.038;7.216;2022-08-03T09:24:03;4.40;;;2.67;;
1128;SDS011;553;51.038;7.216;2022-08-03T09:26:38;2.57;;;2.30;;
1128;SDS011;553;51.038;7.216;2022-08-03T09:29:06;3.63;;;2.20;;
1128;SDS011;553;51.038;7.216;2022-08-03T09:31:41;4.37;;;2.10;;
1128;SDS011;553;51.038;7.216;2022-08-03T09:34:12;3.50;;;2.77;;
1128;SDS011;553;51.038;7.216;2022-08-03T09:39:09;5.67;;;3.03;;
1128;SDS011;553;51.038;7.216;2022-08-03T09:42:08;2.60;;;2.30;;
1128;SDS011;553;51.038;7.216;2022-08-03T09:44:53;5.57;;;2.90;;
1128;SDS011;553;51.038;7.216;2022-08-03T09:47:27;3.63;;;2.87;;
1128;SDS011;553;51.038;7.216;2022-08-03T09:50:00;5.93;;;3.50;;
1128;SDS011;553;51.038;7.216;2022-08-03T09:52:34;4.10;;;3.33;;
1128;SDS011;553;51.038;7.216;2022-08-03T09:55:18;4.13;;;2.70;;
1128;SDS011;553;51.038;7.216;2022-08-03T09:58:10;3.40;;;2.83;;
1128;SDS011;553;51.038;7.216;2022-08-03T10:03:56;8.27;;;3.23;;
1128;SDS011;553;51.038;7.216;2022-08-03T10:06:29;4.50;;;2.90;;
1128;SDS011;553;51.038;7.216;2022-08-03T10:09:06;6.37;;;3.40;;
1128;SDS011;553;51.038;7.216;2022-08-03T10:11:37;3.30;;;3.00;;
1128;SDS011;553;51.038;7.216;2022-08-03T10:14:08;5.50;;;3.37;;
1128;SDS011;553;51.038;7.216;2022-08-03T10:16:37;3.83;;;3.00;;
1128;SDS011;553;51.038;7.216;2022-08-03T10:19:05;3.53;;;3.23;;
1128;SDS011;553;51.038;7.216;2022-08-03T10:21:34;7.07;;;3.03;;
1128;SDS011;553;51.038;7.216;2022-08-03T10:24:03;4.27;;;3.10;;
1128;SDS011;553;51.038;7.216;2022-08-03T10:26:33;4.00;;;3.50;;
1128;SDS011;553;51.038;7.216;2022-08-03T10:29:03;4.37;;;3.20;;
1128;SDS011;553;51.038;7.216;2022-08-03T10:31:38;5.47;;;3.60;;
1128;SDS011;553;51.038;7.216;2022-08-03T10:34:28;6.53;;;3.00;;
1128;SDS011;553;51.038;7.216;2022-08-03T10:37:00;4.50;;;3.20;;
1128;SDS011;553;51.038;7.216;2022-08-03T10:39:33;5.70;;;3.07;;
1128;SDS011;553;51.038;7.216;2022-08-03T10:42:01;7.23;;;3.37;;
1128;SDS011;553;51.038;7.216;2022-08-03T10:44:36;4.40;;;3.20;;
1128;SDS011;553;51.038;7.216;2022-08-03T10:47:06;6.97;;;2.83;;
1128;SDS011;553;51.038;7.216;2022-08-03T10:49:35;5.27;;;2.80;;
1128;SDS011;553;51.038;7.216;2022-08-03T10:52:03;5.40;;;2.47;;
1128;SDS011;553;51.038;7.216;2022-08-03T10:54:50;4.53;;;2.23;;
1128;SDS011;553;51.038;7.216;2022-08-03T10:57:43;3.13;;;1.80;;
1128;SDS011;553;51.038;7.216;2022-08-03T11:00:18;3.37;;;2.40;;
1128;SDS011;553;51.038;7.216;2022-08-03T11:03:00;4.67;;;2.20;;
1128;SDS011;553;51.038;7.216;2022-08-03T11:05:46;5.70;;;3.03;;
1128;SDS011;553;51.038;7.216;2022-08-03T11:08:20;2.67;;;1.73;;
1128;SDS011;553;51.038;7.216;2022-08-03T11:10:54;3.60;;;2.67;;
1128;SDS011;553;51.038;7.216;2022-08-03T11:13:23;4.60;;;2.90;;
1128;SDS011;553;51.038;7.216;2022-08-03T11:15:54;6.20;;;2.97;;
1128;SDS011;553;51.038;7.216;2022-08-03T11:18:27;3.40;;;2.50;;
1128;SDS011;553;51.038;7.216;2022-08-03T11:20:55;2.40;;;2.20;;
1128;SDS011;553;51.038;7.216;2022-08-03T11:23:43;3.33;;;2.40;;
1128;SDS011;553;51.038;7.216;2022-08-03T11:26:31;5.00;;;2.53;;
1128;SDS011;553;51.038;7.216;2022-08-03T11:31:56;3.57;;;2.50;;
1128;SDS011;553;51.038;7.216;2022-08-03T11:34:23;3.93;;;2.37;;
1128;SDS011;553;51.038;7.216;2022-08-03T11:39:49;3.30;;;2.17;;
1128;SDS011;553;51.038;7.216;2022-08-03T11:44:51;3.03;;;2.50;;
1128;SDS011;553;51.038;7.216;2022-08-03T11:47:20;5.80;;;2.30;;
1128;SDS011;553;51.038;7.216;2022-08-03T11:49:48;3.83;;;2.47;;
1128;SDS011;553;51.038;7.216;2022-08-03T11:52:16;4.83;;;2.10;;
1128;SDS011;553;51.038;7.216;2022-08-03T11:54:43;4.47;;;2.20;;
1128;SDS011;553;51.038;7.216;2022-08-03T11:57:10;5.40;;;2.20;;
1128;SDS011;553;51.038;7.216;2022-08-03T11:59:37;4.60;;;2.33;;
1128;SDS011;553;51.038;7.216;2022-08-03T12:02:07;3.40;;;2.27;;
1128;SDS011;553;51.038;7.216;2022-08-03T12:04:51;5.40;;;2.40;;
1128;SDS011;553;51.038;7.216;2022-08-03T12:07:27;5.33;;;2.20;;
1128;SDS011;553;51.038;7.216;2022-08-03T12:10:14;3.87;;;2.10;;
1128;SDS011;553;51.038;7.216;2022-08-03T12:12:41;2.80;;;1.97;;
1128;SDS011;553;51.038;7.216;2022-08-03T12:15:12;6.63;;;2.53;;
1128;SDS011;553;51.038;7.216;2022-08-03T12:17:39;3.37;;;1.90;;
1128;SDS011;553;51.038;7.216;2022-08-03T12:20:08;8.60;;;2.20;;
1128;SDS011;553;51.038;7.216;2022-08-03T12:22:39;3.10;;;2.07;;
1128;SDS011;553;51.038;7.216;2022-08-03T12:25:07;5.23;;;1.80;;
1128;SDS011;553;51.038;7.216;2022-08-03T12:27:35;4.47;;;1.57;;
1128;SDS011;553;51.038;7.216;2022-08-03T12:30:02;4.07;;;1.57;;
1128;SDS011;553;51.038;7.216;2022-08-03T12:32:29;2.30;;;1.50;;
1128;SDS011;553;51.038;7.216;2022-08-03T12:34:56;1.50;;;1.40;;
1128;SDS011;553;51.038;7.216;2022-08-03T12:37:29;2.87;;;2.10;;
1128;SDS011;553;51.038;7.216;2022-08-03T12:39:58;4.27;;;2.00;;
1128;SDS011;553;51.038;7.216;2022-08-03T12:42:35;2.90;;;1.87;;
1128;SDS011;553;51.038;7.216;2022-08-03T12:47:52;2.33;;;1.70;;
1128;SDS011;553;51.038;7.216;2022-08-03T12:53:00;3.17;;;2.13;;
1128;SDS011;553;51.038;7.216;2022-08-03T12:55:33;3.80;;;1.90;;
1128;SDS011;553;51.038;7.216;2022-08-03T12:58:28;2.43;;;1.90;;
1128;SDS011;553;51.038;7.216;2022-08-03T13:01:01;4.63;;;2.23;;
1128;SDS011;553;51.038;7.216;2022-08-03T13:06:22;6.17;;;2.23;;
1128;SDS011;553;51.038;7.216;2022-08-03T13:09:04;2.80;;;1.90;;
1128;SDS011;553;51.038;7.216;2022-08-03T13:11:32;5.23;;;1.70;;
1128;SDS011;553;51.038;7.216;2022-08-03T13:14:19;2.73;;;1.80;;
1128;SDS011;553;51.038;7.216;2022-08-03T13:16:47;3.20;;;2.13;;
1128;SDS011;553;51.038;7.216;2022-08-03T13:19:14;5.80;;;2.20;;
1128;SDS011;553;51.038;7.216;2022-08-03T13:21:41;3.90;;;2.30;;
1128;SDS011;553;51.038;7.216;2022-08-03T13:24:29;5.10;;;2.20;;
1128;SDS011;553;51.038;7.216;2022-08-03T13:26:57;4.20;;;1.87;;
1128;SDS011;553;51.038;7.216;2022-08-03T13:29:24;7.33;;;2.23;;
1128;SDS011;553;51.038;7.216;2022-08-03T13:31:51;4.13;;;2.10;;
1128;SDS011;553;51.038;7.216;2022-08-03T13:34:18;4.90;;;1.97;;
1128;SDS011;553;51.038;7.216;2022-08-03T13:36:49;3.03;;;1.97;;
1128;SDS011;553;51.038;7.216;2022-08-03T13:39:35;4.00;;;2.27;;
1128;SDS011;553;51.038;7.216;2022-08-03T13:42:22;4.87;;;2.33;;
1128;SDS011;553;51.038;7.216;2022-08-03T13:44:49;4.20;;;1.93;;
1128;SDS011;553;51.038;7.216;2022-08-03T13:47:16;4.83;;;2.60;;
1128;SDS011;553;51.038;7.216;2022-08-03T13:49:43;3.43;;;2.10;;
1128;SDS011;553;51.038;7.216;2022-08-03T13:52:27;4.00;;;2.30;;
1128;SDS011;553;51.038;7.216;2022-08-03T13:54:55;4.57;;;2.03;;
1128;SDS011;553;51.038;7.216;2022-08-03T13:57:22;5.93;;;2.63;;
1128;SDS011;553;51.038;7.216;2022-08-03T14:00:09;3.07;;;2.37;;
1128;SDS011;553;51.038;7.216;2022-08-03T14:02:36;3.33;;;2.40;;
1128;SDS011;553;51.038;7.216;2022-08-03T14:05:03;5.07;;;2.20;;
1128;SDS011;553;51.038;7.216;2022-08-03T14:07:30;8.20;;;2.50;;
1128;SDS011;553;51.038;7.216;2022-08-03T14:09:57;4.27;;;2.30;;
1128;SDS011;553;51.038;7.216;2022-08-03T14:12:24;3.40;;;1.70;;
1128;SDS011;553;51.038;7.216;2022-08-03T14:14:51;4.77;;;2.13;;
1128;SDS011;553;51.038;7.216;2022-08-03T14:17:17;3.87;;;2.43;;
1128;SDS011;553;51.038;7.216;2022-08-03T14:19:48;3.67;;;2.10;;
1128;SDS011;553;51.038;7.216;2022-08-03T14:22:19;2.43;;;1.77;;
1128;SDS011;553;51.038;7.216;2022-08-03T14:24:46;4.17;;;2.03;;
1128;SDS011;553;51.038;7.216;2022-08-03T14:27:14;3.73;;;1.93;;
1128;SDS011;553;51.038;7.216;2022-08-03T14:29:41;6.20;;;2.30;;
1128;SDS011;553;51.038;7.216;2022-08-03T14:32:08;6.03;;;2.30;;
1128;SDS011;553;51.038;7.216;2022-08-03T14:34:38;2.73;;;2.10;;
1128;SDS011;553;51.038;7.216;2022-08-03T14:37:06;3.67;;;2.00;;
1128;SDS011;553;51.038;7.216;2022-08-03T14:39:33;3.83;;;2.00;;
1128;SDS011;553;51.038;7.216;2022-08-03T14:42:20;3.73;;;1.87;;
1128;SDS011;553;51.038;7.216;2022-08-03T14:44:46;4.23;;;2.00;;
1128;SDS011;553;51.038;7.216;2022-08-03T14:47:13;5.20;;;2.00;;
1128;SDS011;553;51.038;7.216;2022-08-03T14:49:40;3.83;;;1.93;;
1128;SDS011;553;51.038;7.216;2022-08-03T14:52:28;4.03;;;1.80;;
1128;SDS011;553;51.038;7.216;2022-08-03T14:54:55;6.50;;;2.40;;
1128;SDS011;553;51.038;7.216;2022-08-03T14:57:22;5.00;;;2.33;;
1128;SDS011;553;51.038;7.216;2022-08-03T14:59:49;4.13;;;2.10;;
1128;SDS011;553;51.038;7.216;2022-08-03T15:02:23;5.07;;;2.13;;
1128;SDS011;553;51.038;7.216;2022-08-03T15:04:50;3.80;;;2.00;;
1128;SDS011;553;51.038;7.216;2022-08-03T15:07:18;6.73;;;2.13;;
1128;SDS011;553;51.038;7.216;2022-08-03T15:09:46;5.47;;;2.10;;
1128;SDS011;553;51.038;7.216;2022-08-03T15:12:13;9.80;;;2.20;;
1128;SDS011;553;51.038;7.216;2022-08-03T15:14:39;4.63;;;1.80;;
1128;SDS011;553;51.038;7.216;2022-08-03T15:17:06;2.53;;;1.77;;
1128;SDS011;553;51.038;7.216;2022-08-03T15:19:33;6.30;;;2.27;;
1128;SDS011;553;51.038;7.216;2022-08-03T15:22:20;4.27;;;2.20;;
1128;SDS011;553;51.038;7.216;2022-08-03T15:25:02;5.40;;;2.40;;
1128;SDS011;553;51.038;7.216;2022-08-03T15:27:50;4.53;;;2.07;;
1128;SDS011;553;51.038;7.216;2022-08-03T15:30:30;4.70;;;2.10;;
1128;SDS011;553;51.038;7.216;2022-08-03T15:33:00;4.47;;;1.90;;
1128;SDS011;553;51.038;7.216;2022-08-03T15:35:27;2.17;;;1.93;;
1128;SDS011;553;51.038;7.216;2022-08-03T15:37:54;3.73;;;2.07;;
1128;SDS011;553;51.038;7.216;2022-08-03T15:40:21;3.00;;;2.00;;
1128;SDS011;553;51.038;7.216;2022-08-03T15:42:47;8.87;;;2.40;;
1128;SDS011;553;51.038;7.216;2022-08-03T15:45:14;3.47;;;2.10;;
1128;SDS011;553;51.038;7.216;2022-08-03T15:47:45;2.70;;;1.87;;
1128;SDS011;553;51.038;7.216;2022-08-03T15:50:12;4.43;;;2.20;;
1128;SDS011;553;51.038;7.216;2022-08-03T15:52:39;5.07;;;2.27;;
1128;SDS011;553;51.038;7.216;2022-08-03T15:55:06;3.93;;;2.10;;
1128;SDS011;553;51.038;7.216;2022-08-03T15:57:33;4.53;;;1.90;;
1128;SDS011;553;51.038;7.216;2022-08-03T16:00:19;5.20;;;2.40;;
1128;SDS011;553;51.038;7.216;2022-08-03T16:02:59;3.27;;;1.97;;
1128;SDS011;553;51.038;7.216;2022-08-03T16:05:26;4.10;;;2.00;;
1128;SDS011;553;51.038;7.216;2022-08-03T16:07:53;4.60;;;2.40;;
1128;SDS011;553;51.038;7.216;2022-08-03T16:10:29;3.60;;;2.23;;
1128;SDS011;553;51.038;7.216;2022-08-03T16:12:57;2.43;;;1.90;;
1128;SDS011;553;51.038;7.216;2022-08-03T16:15:25;2.27;;;2.07;;
1128;SDS011;553;51.038;7.216;2022-08-03T16:17:52;7.33;;;2.50;;
1128;SDS011;553;51.038;7.216;2022-08-03T16:20:19;4.57;;;2.30;;
1128;SDS011;553;51.038;7.216;2022-08-03T16:23:00;2.43;;;2.10;;
1128;SDS011;553;51.038;7.216;2022-08-03T16:25:40;4.57;;;2.40;;
1128;SDS011;553;51.038;7.216;2022-08-03T16:28:14;2.73;;;2.03;;
1128;SDS011;553;51.038;7.216;2022-08-03T16:30:43;7.43;;;2.70;;
1128;SDS011;553;51.038;7.216;2022-08-03T16:33:11;4.57;;;2.23;;
1128;SDS011;553;51.038;7.216;2022-08-03T16:35:43;2.97;;;2.40;;
1128;SDS011;553;51.038;7.216;2022-08-03T16:38:11;3.50;;;2.00;;
1128;SDS011;553;51.038;7.216;2022-08-03T16:40:43;6.63;;;2.20;;
1128;SDS011;553;51.038;7.216;2022-08-03T16:43:12;4.37;;;2.63;;
1128;SDS011;553;51.038;7.216;2022-08-03T16:45:44;2.83;;;2.30;;
1128;SDS011;553;51.038;7.216;2022-08-03T16:48:12;3.03;;;2.40;;